sensor_id;sensor_type;location;lat;lon;timestamp;pressure;altitude;pressure_sealevel;temperature;humidity
55470;BME280;41334;47.872;16.384;2023-07-24T00:02:03;98567.84;;;20.61;59.90
55470;BME280;41334;47.872;16.384;2023-07-24T00:07:05;98571.44;;;20.58;59.20
55470;BME280;41334;47.872;16.384;2023-07-24T00:12:07;98565.03;;;20.51;59.59
55470;BME280;41334;47.872;16.384;2023-07-24T00:17:09;98559.78;;;20.38;59.22
55470;BME280;41334;47.872;16.384;2023-07-24T00:22:11;98550.94;;;20.29;61.21
55470;BME280;41334;47.872;16.384;2023-07-24T00:27:13;98560.56;;;20.17;60.31
55470;BME280;41334;47.872;16.384;2023-07-24T00:32:15;98564.97;;;20.11;59.25
55470;BME280;41334;47.872;16.384;2023-07-24T00:37:17;98562.50;;;20.10;60.67
55470;BME280;41334;47.872;16.384;2023-07-24T00:42:20;98555.25;;;19.98;59.79
55470;BME280;41334;47.872;16.384;2023-07-24T00:47:22;98551.19;;;19.88;60.46
55470;BME280;41334;47.872;16.384;2023-07-24T00:52:25;98548.75;;;19.83;60.20
55470;BME280;41334;47.872;16.384;2023-07-24T00:57:27;98544.72;;;19.77;60.58
55470;BME280;41334;47.872;16.384;2023-07-24T01:02:30;98545.13;;;19.72;62.93
55470;BME280;41334;47.872;16.384;2023-07-24T01:07:32;98545.13;;;19.72;61.95
55470;BME280;41334;47.872;16.384;2023-07-24T01:13:08;98540.72;;;19.82;62.41
55470;BME280;41334;47.872;16.384;2023-07-24T01:18:17;98534.34;;;19.92;62.74
55470;BME280;41334;47.872;16.384;2023-07-24T01:23:44;98528.31;;;19.97;62.69
55470;BME280;41334;47.872;16.384;2023-07-24T01:28:52;98532.75;;;19.98;62.24
55470;BME280;41334;47.872;16.384;2023-07-24T01:33:54;98537.94;;;19.89;61.17
55470;BME280;41334;47.872;16.384;2023-07-24T01:38:56;98541.97;;;19.88;61.89
55470;BME280;41334;47.872;16.384;2023-07-24T01:44:01;98540.72;;;19.82;61.90
55470;BME280;41334;47.872;16.384;2023-07-24T01:49:03;98529.50;;;19.85;61.58
55470;BME280;41334;47.872;16.384;2023-07-24T01:54:05;98530.72;;;19.91;61.10
55470;BME280;41334;47.872;16.384;2023-07-24T01:59:07;98517.06;;;19.93;61.14
55470;BME280;41334;47.872;16.384;2023-07-24T02:04:09;98511.84;;;19.92;60.83
55470;BME280;41334;47.872;16.384;2023-07-24T02:09:11;98511.81;;;19.88;61.00
55470;BME280;41334;47.872;16.384;2023-07-24T02:14:14;98513.00;;;19.84;61.41
55470;BME280;41334;47.872;16.384;2023-07-24T02:19:17;98493.34;;;19.80;61.31
55470;BME280;41334;47.872;16.384;2023-07-24T02:24:19;98498.53;;;19.78;60.73
55470;BME280;41334;47.872;16.384;2023-07-24T02:29:21;98504.16;;;19.71;61.63
55470;BME280;41334;47.872;16.384;2023-07-24T02:34:24;98504.94;;;19.64;61.17
55470;BME280;41334;47.872;16.384;2023-07-24T02:39:28;98500.09;;;19.54;61.12
55470;BME280;41334;47.872;16.384;2023-07-24T02:44:30;98495.22;;;19.44;61.60
55470;BME280;41334;47.872;16.384;2023-07-24T02:49:32;98493.59;;;19.39;61.35
55470;BME280;41334;47.872;16.384;2023-07-24T02:54:34;98487.94;;;19.36;61.54
55470;BME280;41334;47.872;16.384;2023-07-24T02:59:36;98491.16;;;19.34;61.28
55470;BME280;41334;47.872;16.384;2023-07-24T03:04:38;98484.75;;;19.34;61.23
55470;BME280;41334;47.872;16.384;2023-07-24T03:09:40;98476.25;;;19.27;60.28
55470;BME280;41334;47.872;16.384;2023-07-24T03:14:42;98477.03;;;19.24;60.13
55470;BME280;41334;47.872;16.384;2023-07-24T03:19:44;98473.81;;;19.18;60.63
55470;BME280;41334;47.872;16.384;2023-07-24T03:24:46;98462.53;;;19.14;60.13
55470;BME280;41334;47.872;16.384;2023-07-24T03:29:48;98455.75;;;19.19;59.68
55470;BME280;41334;47.872;16.384;2023-07-24T03:34:50;98454.59;;;19.27;58.81
55470;BME280;41334;47.872;16.384;2023-07-24T03:39:52;98456.25;;;19.35;57.65
55470;BME280;41334;47.872;16.384;2023-07-24T03:44:55;98452.69;;;19.56;56.87
55470;BME280;41334;47.872;16.384;2023-07-24T03:49:57;98447.91;;;19.64;57.10
55470;BME280;41334;47.872;16.384;2023-07-24T03:54:59;98455.97;;;19.83;56.92
55470;BME280;41334;47.872;16.384;2023-07-24T04:00:02;98464.91;;;20.17;56.70
55470;BME280;41334;47.872;16.384;2023-07-24T04:05:12;98456.06;;;20.47;55.79
55470;BME280;41334;47.872;16.384;2023-07-24T04:10:14;98458.06;;;20.65;55.30
55470;BME280;41334;47.872;16.384;2023-07-24T04:15:16;98456.06;;;20.65;54.57
55470;BME280;41334;47.872;16.384;2023-07-24T04:20:18;98457.66;;;20.59;55.93
55470;BME280;41334;47.872;16.384;2023-07-24T04:25:20;98453.66;;;20.60;55.66
55470;BME280;41334;47.872;16.384;2023-07-24T04:30:22;98448.44;;;20.48;57.07
55470;BME280;41334;47.872;16.384;2023-07-24T04:35:24;98452.44;;;20.58;56.30
55470;BME280;41334;47.872;16.384;2023-07-24T04:40:26;98450.00;;;20.70;57.50
55470;BME280;41334;47.872;16.384;2023-07-24T04:45:27;98456.44;;;20.71;56.70
55470;BME280;41334;47.872;16.384;2023-07-24T04:50:29;98446.38;;;20.73;57.57
55470;BME280;41334;47.872;16.384;2023-07-24T04:55:32;98446.72;;;21.08;55.96
55470;BME280;41334;47.872;16.384;2023-07-24T05:00:33;98445.38;;;21.41;55.61
55470;BME280;41334;47.872;16.384;2023-07-24T05:05:35;98446.84;;;21.77;54.28
55470;BME280;41334;47.872;16.384;2023-07-24T05:10:37;98437.13;;;22.34;52.46
55470;BME280;41334;47.872;16.384;2023-07-24T05:15:39;98440.63;;;22.56;51.77
55470;BME280;41334;47.872;16.384;2023-07-24T05:20:48;98445.44;;;22.97;49.77
55470;BME280;41334;47.872;16.384;2023-07-24T05:25:57;98435.34;;;23.33;48.40
55470;BME280;41334;47.872;16.384;2023-07-24T05:31:01;98437.13;;;23.51;47.83
55470;BME280;41334;47.872;16.384;2023-07-24T05:36:04;98449.50;;;23.64;48.40
55470;BME280;41334;47.872;16.384;2023-07-24T05:41:06;98437.69;;;24.00;48.16
55470;BME280;41334;47.872;16.384;2023-07-24T05:46:08;98431.84;;;24.37;47.35
55470;BME280;41334;47.872;16.384;2023-07-24T05:51:10;98433.66;;;24.95;47.33
55470;BME280;41334;47.872;16.384;2023-07-24T05:56:12;98438.94;;;25.56;46.26
55470;BME280;41334;47.872;16.384;2023-07-24T06:01:14;98434.06;;;25.76;45.25
55470;BME280;41334;47.872;16.384;2023-07-24T06:06:16;98422.88;;;25.49;46.01
55470;BME280;41334;47.872;16.384;2023-07-24T06:11:18;98416.41;;;25.29;48.82
55470;BME280;41334;47.872;16.384;2023-07-24T06:16:20;98414.31;;;25.33;49.17
55470;BME280;41334;47.872;16.384;2023-07-24T06:21:22;98408.56;;;25.53;49.53
55470;BME280;41334;47.872;16.384;2023-07-24T06:26:24;98398.47;;;25.72;47.39
55470;BME280;41334;47.872;16.384;2023-07-24T06:31:26;98389.38;;;25.60;49.57
55470;BME280;41334;47.872;16.384;2023-07-24T06:36:28;98375.59;;;25.59;49.68
55470;BME280;41334;47.872;16.384;2023-07-24T06:41:31;98383.97;;;25.86;49.68
55470;BME280;41334;47.872;16.384;2023-07-24T06:46:33;98377.31;;;26.25;50.46
55470;BME280;41334;47.872;16.384;2023-07-24T06:51:35;98369.81;;;26.64;50.14
55470;BME280;41334;47.872;16.384;2023-07-24T06:56:37;98363.41;;;26.60;50.67
55470;BME280;41334;47.872;16.384;2023-07-24T07:01:39;98370.84;;;26.70;48.70
55470;BME280;41334;47.872;16.384;2023-07-24T07:06:41;98366.50;;;26.65;49.73
55470;BME280;41334;47.872;16.384;2023-07-24T07:11:43;98366.03;;;26.83;49.93
55470;BME280;41334;47.872;16.384;2023-07-24T07:16:46;98349.63;;;26.75;50.13
55470;BME280;41334;47.872;16.384;2023-07-24T07:21:49;98346.59;;;26.82;50.56
55470;BME280;41334;47.872;16.384;2023-07-24T07:26:51;98347.38;;;27.11;49.47
55470;BME280;41334;47.872;16.384;2023-07-24T07:31:53;98336.03;;;27.49;46.17
55470;BME280;41334;47.872;16.384;2023-07-24T07:36:55;98328.09;;;27.83;45.04
55470;BME280;41334;47.872;16.384;2023-07-24T07:41:57;98327.41;;;28.51;43.84
55470;BME280;41334;47.872;16.384;2023-07-24T07:47:16;98324.00;;;28.78;41.81
55470;BME280;41334;47.872;16.384;2023-07-24T07:52:18;98325.06;;;29.16;41.44
55470;BME280;41334;47.872;16.384;2023-07-24T07:57:22;98307.44;;;29.08;39.85
55470;BME280;41334;47.872;16.384;2023-07-24T08:02:23;98308.78;;;29.47;39.14
55470;BME280;41334;47.872;16.384;2023-07-24T08:07:25;98301.16;;;29.85;37.48
55470;BME280;41334;47.872;16.384;2023-07-24T08:12:27;98296.84;;;30.29;37.55
55470;BME280;41334;47.872;16.384;2023-07-24T08:17:29;98273.66;;;30.73;37.06
55470;BME280;41334;47.872;16.384;2023-07-24T08:22:33;98264.75;;;30.90;35.61
55470;BME280;41334;47.872;16.384;2023-07-24T08:27:35;98263.75;;;31.02;35.39
55470;BME280;41334;47.872;16.384;2023-07-24T08:32:57;98263.84;;;31.35;34.41
55470;BME280;41334;47.872;16.384;2023-07-24T08:37:59;98264.22;;;31.61;33.46
55470;BME280;41334;47.872;16.384;2023-07-24T08:43:01;98254.38;;;31.86;32.26
55470;BME280;41334;47.872;16.384;2023-07-24T08:48:04;98245.91;;;32.39;31.89
55470;BME280;41334;47.872;16.384;2023-07-24T08:53:06;98239.16;;;32.52;30.45
55470;BME280;41334;47.872;16.384;2023-07-24T08:58:08;98224.59;;;32.17;31.54
55470;BME280;41334;47.872;16.384;2023-07-24T09:03:10;98208.84;;;32.12;31.14
55470;BME280;41334;47.872;16.384;2023-07-24T09:08:13;98203.03;;;32.60;30.22
55470;BME280;41334;47.872;16.384;2023-07-24T09:13:15;98197.81;;;33.17;27.87
55470;BME280;41334;47.872;16.384;2023-07-24T09:18:17;98192.56;;;33.66;27.77
55470;BME280;41334;47.872;16.384;2023-07-24T09:23:27;98184.84;;;33.57;26.75
55470;BME280;41334;47.872;16.384;2023-07-24T09:28:29;98178.47;;;33.68;27.33
55470;BME280;41334;47.872;16.384;2023-07-24T09:33:40;98168.50;;;34.04;27.26
55470;BME280;41334;47.872;16.384;2023-07-24T09:38:42;98165.34;;;34.23;25.34
55470;BME280;41334;47.872;16.384;2023-07-24T09:43:44;98135.00;;;34.73;25.22
55470;BME280;41334;47.872;16.384;2023-07-24T09:48:46;98135.00;;;34.73;25.22
55470;BME280;41334;47.872;16.384;2023-07-24T09:59:16;98117.94;;;34.96;23.69
55470;BME280;41334;47.872;16.384;2023-07-24T10:04:19;98088.66;;;34.97;22.86
55470;BME280;41334;47.872;16.384;2023-07-24T10:09:21;98084.59;;;35.21;23.97
55470;BME280;41334;47.872;16.384;2023-07-24T10:14:29;98083.34;;;35.33;22.73
55470;BME280;41334;47.872;16.384;2023-07-24T10:19:42;98080.03;;;35.40;25.02
55470;BME280;41334;47.872;16.384;2023-07-24T10:24:47;68747.22;;;-147.47;24.90
55470;BME280;41334;47.872;16.384;2023-07-24T10:30:02;98060.91;;;35.43;24.22
55470;BME280;41334;47.872;16.384;2023-07-24T10:35:19;98052.09;;;35.63;22.60
55470;BME280;41334;47.872;16.384;2023-07-24T10:40:25;98035.34;;;35.73;23.47
55470;BME280;41334;47.872;16.384;2023-07-24T10:45:47;98026.59;;;36.44;22.47
55470;BME280;41334;47.872;16.384;2023-07-24T10:50:51;98026.59;;;36.44;22.47
55470;BME280;41334;47.872;16.384;2023-07-24T10:55:55;98011.91;;;36.31;22.97
55470;BME280;41334;47.872;16.384;2023-07-24T11:00:58;97999.03;;;36.20;22.44
55470;BME280;41334;47.872;16.384;2023-07-24T11:06:01;98001.38;;;36.05;23.26
55470;BME280;41334;47.872;16.384;2023-07-24T11:11:03;97982.50;;;36.21;23.97
55470;BME280;41334;47.872;16.384;2023-07-24T11:16:07;97957.06;;;36.19;22.75
55470;BME280;41334;47.872;16.384;2023-07-24T11:21:11;97945.78;;;36.49;21.87
55470;BME280;41334;47.872;16.384;2023-07-24T11:26:14;97939.09;;;37.05;22.16
55470;BME280;41334;47.872;16.384;2023-07-24T11:31:16;97936.03;;;36.69;21.63
55470;BME280;41334;47.872;16.384;2023-07-24T11:36:21;97929.69;;;35.53;24.28
55470;BME280;41334;47.872;16.384;2023-07-24T11:41:25;97924.00;;;35.92;22.37
55470;BME280;41334;47.872;16.384;2023-07-24T11:46:28;97934.19;;;36.77;22.65
55470;BME280;41334;47.872;16.384;2023-07-24T11:51:32;97926.97;;;37.12;23.40
55470;BME280;41334;47.872;16.384;2023-07-24T11:56:36;97933.34;;;36.99;22.33
55470;BME280;41334;47.872;16.384;2023-07-24T12:01:38;97917.78;;;37.19;21.92
55470;BME280;41334;47.872;16.384;2023-07-24T12:07:08;97912.53;;;37.18;23.41
55470;BME280;41334;47.872;16.384;2023-07-24T12:12:10;97907.88;;;36.92;23.44
55470;BME280;41334;47.872;16.384;2023-07-24T12:17:18;97890.03;;;37.46;23.35
55470;BME280;41334;47.872;16.384;2023-07-24T12:22:21;97876.41;;;37.83;23.74
55470;BME280;41334;47.872;16.384;2023-07-24T12:27:24;97857.06;;;37.25;23.62
55470;BME280;41334;47.872;16.384;2023-07-24T12:32:26;97862.72;;;37.83;23.10
55470;BME280;41334;47.872;16.384;2023-07-24T12:37:28;97869.00;;;38.23;23.36
55470;BME280;41334;47.872;16.384;2023-07-24T12:42:30;97863.16;;;37.63;23.69
55470;BME280;41334;47.872;16.384;2023-07-24T12:47:32;97861.38;;;37.01;24.42
55470;BME280;41334;47.872;16.384;2023-07-24T12:52:34;97868.91;;;35.51;25.95
55470;BME280;41334;47.872;16.384;2023-07-24T12:57:36;97858.25;;;34.92;27.19
55470;BME280;41334;47.872;16.384;2023-07-24T13:02:38;97852.84;;;35.22;27.41
55470;BME280;41334;47.872;16.384;2023-07-24T13:07:40;97827.25;;;34.70;27.37
55470;BME280;41334;47.872;16.384;2023-07-24T13:12:42;97805.16;;;35.10;27.37
55470;BME280;41334;47.872;16.384;2023-07-24T13:17:44;97801.72;;;34.94;27.22
55470;BME280;41334;47.872;16.384;2023-07-24T13:22:46;97812.81;;;35.30;27.67
55470;BME280;41334;47.872;16.384;2023-07-24T13:27:50;97815.41;;;35.28;27.31
55470;BME280;41334;47.872;16.384;2023-07-24T13:32:52;97815.16;;;34.55;28.35
55470;BME280;41334;47.872;16.384;2023-07-24T13:37:54;97818.84;;;34.61;28.57
55470;BME280;41334;47.872;16.384;2023-07-24T13:42:55;97806.91;;;34.85;27.86
55470;BME280;41334;47.872;16.384;2023-07-24T13:47:57;97787.97;;;34.56;28.36
55470;BME280;41334;47.872;16.384;2023-07-24T13:53:04;97775.94;;;34.57;28.85
55470;BME280;41334;47.872;16.384;2023-07-24T13:58:07;97765.03;;;34.24;28.90
55470;BME280;41334;47.872;16.384;2023-07-24T14:03:09;97756.63;;;34.75;28.44
55470;BME280;41334;47.872;16.384;2023-07-24T14:08:11;97757.38;;;34.64;28.47
55470;BME280;41334;47.872;16.384;2023-07-24T14:13:13;97745.69;;;34.95;28.26
55470;BME280;41334;47.872;16.384;2023-07-24T14:18:15;97725.31;;;35.05;28.35
55470;BME280;41334;47.872;16.384;2023-07-24T14:23:17;97706.47;;;35.26;27.49
55470;BME280;41334;47.872;16.384;2023-07-24T14:28:19;97703.06;;;35.05;28.21
55470;BME280;41334;47.872;16.384;2023-07-24T14:33:21;97700.41;;;34.96;28.08
55470;BME280;41334;47.872;16.384;2023-07-24T14:38:24;97696.09;;;34.41;29.11
55470;BME280;41334;47.872;16.384;2023-07-24T14:43:26;97707.16;;;34.65;28.82
55470;BME280;41334;47.872;16.384;2023-07-24T14:48:27;97700.34;;;34.68;28.54
55470;BME280;41334;47.872;16.384;2023-07-24T14:53:29;97703.28;;;34.08;29.83
55470;BME280;41334;47.872;16.384;2023-07-24T14:58:32;97698.19;;;33.17;27.87
55470;BME280;41334;47.872;16.384;2023-07-24T15:03:33;97679.94;;;33.21;27.06
55470;BME280;41334;47.872;16.384;2023-07-24T15:08:36;97682.19;;;33.05;26.34
55470;BME280;41334;47.872;16.384;2023-07-24T15:13:37;97674.91;;;32.84;26.42
55470;BME280;41334;47.872;16.384;2023-07-24T15:18:39;97671.84;;;32.67;26.41
55470;BME280;41334;47.872;16.384;2023-07-24T15:23:41;97672.34;;;33.49;25.16
55470;BME280;41334;47.872;16.384;2023-07-24T15:28:44;97670.75;;;33.11;25.92
55470;BME280;41334;47.872;16.384;2023-07-24T15:33:46;97681.19;;;33.14;26.16
55470;BME280;41334;47.872;16.384;2023-07-24T15:38:48;97674.91;;;32.84;26.10
55470;BME280;41334;47.872;16.384;2023-07-24T15:43:50;97673.13;;;32.40;26.88
55470;BME280;41334;47.872;16.384;2023-07-24T15:48:52;97670.28;;;32.20;27.70
55470;BME280;41334;47.872;16.384;2023-07-24T15:53:54;97667.34;;;32.14;27.71
55470;BME280;41334;47.872;16.384;2023-07-24T15:58:56;97673.50;;;32.27;27.29
55470;BME280;41334;47.872;16.384;2023-07-24T16:03:58;97667.78;;;32.07;27.39
55470;BME280;41334;47.872;16.384;2023-07-24T16:09:00;97688.53;;;31.81;28.20
55470;BME280;41334;47.872;16.384;2023-07-24T16:14:02;97690.50;;;31.55;28.30
55470;BME280;41334;47.872;16.384;2023-07-24T16:19:15;97699.50;;;31.18;28.58
55470;BME280;41334;47.872;16.384;2023-07-24T16:24:18;97701.72;;;30.94;28.85
55470;BME280;41334;47.872;16.384;2023-07-24T16:29:21;97709.28;;;30.82;29.02
55470;BME280;41334;47.872;16.384;2023-07-24T16:34:23;97707.84;;;30.48;29.73
55470;BME280;41334;47.872;16.384;2023-07-24T16:39:25;97716.28;;;30.81;29.44
55470;BME280;41334;47.872;16.384;2023-07-24T16:44:27;97732.09;;;30.91;29.48
55470;BME280;41334;47.872;16.384;2023-07-24T16:49:33;97727.03;;;30.86;29.07
55470;BME280;41334;47.872;16.384;2023-07-24T16:54:35;97731.97;;;30.71;29.78
55470;BME280;41334;47.872;16.384;2023-07-24T16:59:37;97731.16;;;30.55;29.82
55470;BME280;41334;47.872;16.384;2023-07-24T17:04:39;97720.88;;;30.49;30.39
55470;BME280;41334;47.872;16.384;2023-07-24T17:09:41;97717.44;;;30.21;31.30
55470;BME280;41334;47.872;16.384;2023-07-24T17:14:43;97709.47;;;30.01;30.74
55470;BME280;41334;47.872;16.384;2023-07-24T17:19:45;97718.72;;;29.63;31.71
55470;BME280;41334;47.872;16.384;2023-07-24T17:24:46;97728.25;;;29.26;31.66
55470;BME280;41334;47.872;16.384;2023-07-24T17:29:48;97742.53;;;29.17;31.65
55470;BME280;41334;47.872;16.384;2023-07-24T17:34:50;97748.13;;;28.93;31.61
55470;BME280;41334;47.872;16.384;2023-07-24T17:39:52;97763.06;;;28.79;32.34
55470;BME280;41334;47.872;16.384;2023-07-24T17:44:54;97788.84;;;28.66;32.28
55470;BME280;41334;47.872;16.384;2023-07-24T17:49:56;97815.13;;;28.43;32.88
55470;BME280;41334;47.872;16.384;2023-07-24T17:55:08;97840.59;;;28.28;32.20
55470;BME280;41334;47.872;16.384;2023-07-24T18:00:11;97842.72;;;28.06;31.66
55470;BME280;41334;47.872;16.384;2023-07-24T18:05:13;97829.72;;;27.95;31.66
55470;BME280;41334;47.872;16.384;2023-07-24T18:10:15;97808.97;;;27.86;31.85
55470;BME280;41334;47.872;16.384;2023-07-24T18:15:17;97708.47;;;27.67;34.06
55470;BME280;41334;47.872;16.384;2023-07-24T18:20:19;97732.41;;;26.41;43.14
55470;BME280;41334;47.872;16.384;2023-07-24T18:39:39;97769.13;;;25.37;40.28
55470;BME280;41334;47.872;16.384;2023-07-24T18:52:50;97818.94;;;24.68;42.42
55470;BME280;41334;47.872;16.384;2023-07-24T18:59:48;97861.06;;;24.53;42.88
55470;BME280;41334;47.872;16.384;2023-07-24T19:05:25;97873.88;;;24.25;43.91
55470;BME280;41334;47.872;16.384;2023-07-24T19:12:05;97865.66;;;24.14;43.75
55470;BME280;41334;47.872;16.384;2023-07-24T19:18:41;97884.41;;;24.08;43.57
55470;BME280;41334;47.872;16.384;2023-07-24T19:23:58;97867.34;;;24.11;43.04
55470;BME280;41334;47.872;16.384;2023-07-24T19:48:52;97916.31;;;23.92;42.73
55470;BME280;41334;47.872;16.384;2023-07-24T19:55:29;97932.88;;;23.74;43.47
55470;BME280;41334;47.872;16.384;2023-07-24T20:01:47;97924.88;;;23.52;44.21
55470;BME280;41334;47.872;16.384;2023-07-24T20:07:45;97912.09;;;23.44;43.93
55470;BME280;41334;47.872;16.384;2023-07-24T20:12:53;97919.72;;;23.47;44.11
55470;BME280;41334;47.872;16.384;2023-07-24T20:18:11;97907.16;;;23.48;44.01
55470;BME280;41334;47.872;16.384;2023-07-24T20:24:15;97888.25;;;23.45;44.96
55470;BME280;41334;47.872;16.384;2023-07-24T20:29:57;97865.34;;;23.40;45.11
55470;BME280;41334;47.872;16.384;2023-07-24T20:36:05;97880.38;;;23.37;45.58
55470;BME280;41334;47.872;16.384;2023-07-24T20:41:52;97887.84;;;23.27;46.96
55470;BME280;41334;47.872;16.384;2023-07-24T20:47:47;97909.78;;;23.19;48.27
55470;BME280;41334;47.872;16.384;2023-07-24T20:59:18;97937.91;;;23.06;49.68
55470;BME280;41334;47.872;16.384;2023-07-24T21:05:04;97937.22;;;22.99;49.47
55470;BME280;41334;47.872;16.384;2023-07-24T21:10:44;97948.22;;;22.93;49.48
55470;BME280;41334;47.872;16.384;2023-07-24T21:16:38;97940.09;;;22.95;49.57
55470;BME280;41334;47.872;16.384;2023-07-24T21:22:21;97918.66;;;22.98;47.72
55470;BME280;41334;47.872;16.384;2023-07-24T21:28:06;97894.47;;;22.97;49.16
55470;BME280;41334;47.872;16.384;2023-07-24T21:33:32;97898.47;;;22.99;49.30
55470;BME280;41334;47.872;16.384;2023-07-24T21:38:42;97886.78;;;22.97;49.43
55470;BME280;41334;47.872;16.384;2023-07-24T21:56:56;97889.25;;;22.95;48.42
55470;BME280;41334;47.872;16.384;2023-07-24T22:03:04;97882.06;;;22.91;50.29
55470;BME280;41334;47.872;16.384;2023-07-24T22:21:48;97874.50;;;22.88;49.63
55470;BME280;41334;47.872;16.384;2023-07-24T22:26:53;97876.56;;;22.83;50.54
55470;BME280;41334;47.872;16.384;2023-07-24T22:32:04;97885.47;;;22.39;54.16
55470;BME280;41334;47.872;16.384;2023-07-24T22:37:09;97887.16;;;22.33;54.91
55470;BME280;41334;47.872;16.384;2023-07-24T22:42:20;97884.16;;;22.43;53.80
55470;BME280;41334;47.872;16.384;2023-07-24T22:47:24;97887.78;;;22.44;51.68
55470;BME280;41334;47.872;16.384;2023-07-24T22:52:26;97888.59;;;22.44;52.28
55470;BME280;41334;47.872;16.384;2023-07-24T22:57:50;97877.78;;;22.39;52.37
55470;BME280;41334;47.872;16.384;2023-07-24T23:10:09;97911.25;;;22.41;51.72
55470;BME280;41334;47.872;16.384;2023-07-24T23:16:07;97914.56;;;22.36;51.35
55470;BME280;41334;47.872;16.384;2023-07-24T23:22:26;97920.28;;;22.28;52.69
55470;BME280;41334;47.872;16.384;2023-07-24T23:28:17;97914.09;;;22.14;53.73
55470;BME280;41334;47.872;16.384;2023-07-24T23:34:37;97906.94;;;22.05;55.30
55470;BME280;41334;47.872;16.384;2023-07-24T23:40:17;97904.13;;;22.05;57.37
55470;BME280;41334;47.872;16.384;2023-07-24T23:45:20;97908.66;;;21.99;58.87
55470;BME280;41334;47.872;16.384;2023-07-24T23:50:22;97910.28;;;21.97;55.92
55470;BME280;41334;47.872;16.384;2023-07-24T23:55:24;97931.75;;;21.91;55.85
